Weather observations for the past three days for
Moline Quad-City Airport
Metric (Imperial)
Date Time (cdt) Wind (kph) Vis. (km) Weather Sky Cond. Temperature (ºC) Relative Humidity Wind Chill (°C) Heat Index (°C) Pressure Precipitation (cm)
Air Dwpt 6 hour altimeter (cm) sea level (mb) 1 hr 3 hr 6 hr
Max. Min.
05 18:52 NE 22 16.09 Fair CLR 27.8 22.8 33.9 27.8 74% 31 76.07 1013.6
05 17:52 NE 20 16.09 Fair CLR 30 23.9 70% 35 76.05 1013.3
05 16:52 NE 22 16.09 Fair CLR 31.7 24.4 65% 38 76.02 1012.8
05 15:52 NE 19 G 31 16.09 Partly Cloudy SCT040 32.8 23.9 59% 39 76 1012.7
05 12:52 Calm 16.09 A Few Clouds FEW035 32.2 23.3 32.8 23.3 59% 37 76.07 1013.7
05 11:52 E 13 16.09 Fair CLR 32.2 24.4 63% 39 76.12 1014.1
05 10:52 NE 11 16.09 Fair CLR 31.1 23.9 66% 37 76.1 1014.1
05 09:52 N 9 16.09 Fair CLR 30 24.4 72% 36 76.07 1013.7
05 08:52 NE 11 16.09 Fair CLR 28.3 23.9 77% 32 76.05 1013.3
05 07:52 Calm 16.09 Fair CLR 25.6 23.3 87% 27 76.05 1013.2
05 06:52 Calm 16.09 Fair CLR 23.9 22.8 25.6 22.8 94% 23 75.97 1012.2
05 05:52 SW 6 16.09 Fair CLR 23.3 22.8 97% 75.95 1011.8
05 04:52 NE 6 16.09 Partly Cloudy SCT085 24.4 23.3 94% 24 75.95 1012.0
05 03:52 Calm 16.09 Fair CLR 23.9 22.8 94% 23 75.97 1012.2
05 02:52 Calm 16.09 Fair CLR 23.9 23.3 96% 23 75.97 1012.2
05 01:52 Calm 16.09 Fair CLR 24.4 23.3 94% 24 76 1012.4
05 00:52 S 6 16.09 Fair CLR 25.6 23.9 31.7 25 90% 27 76 1012.5
04 23:52 SE 6 16.09 Fair CLR 26.1 23.9 88% 28 76 1012.5
04 22:52 E 9 16.09 Fair CLR 27.2 23.9 82% 30 76 1012.7
04 21:52 SW 19 16.09 Fair CLR 27.8 24.4 82% 32 75.87 1011.0
04 19:52 S 6 16.09 Fair CLR 27.8 25 85% 32 75.95 1011.8
04 18:52 Calm 16.09 Fair CLR 31.1 25 35.6 31.1 70% 38 75.92 1011.5
04 17:52 SW 11 16.09 Fair CLR 33.3 24.4 60% 40 75.9 1011.2
04 16:52 S 19 16.09 Fair CLR 34.4 23.9 54% 41 75.9 1011.2
04 15:52 SW 13 16.09 Fair CLR 35 23.3 51% 41 75.92 1011.3
04 14:52 SW 9 16.09 Fair CLR 35 22.8 49% 40 75.97 1012.0
04 13:52 W 15 16.09 Fair CLR 35 23.3 51% 41 76.02 1012.9
04 12:52 W 11 16.09 Fair CLR 33.9 22.8 35 23.9 52% 39 76.05 1013.2
04 10:52 S 9 16.09 Fair CLR 31.1 23.9 66% 37 76.07 1013.5
04 09:52 SW 6 16.09 Fair CLR 29.4 22.8 68% 33 76.05 1013.4
04 08:52 W 13 16.09 Fair CLR 28.3 22.2 70% 31 76.02 1012.9
04 07:52 SW 11 16.09 Fair CLR 26.1 21.7 77% 28 75.97 1012.4
04 06:52 Calm 16.09 Fair CLR 23.9 21.1 26.1 23.9 84% 24 75.95 1011.8
04 05:52 Calm 16.09 Fair CLR 24.4 21.1 82% 25 75.95 1011.7
04 04:52 Calm 16.09 Fair CLR 23.9 21.7 88% 24 75.92 1011.6
04 03:52 Calm 16.09 Fair CLR 25.6 21.7 79% 27 75.9 1011.1
04 02:52 S 7 16.09 Fair CLR 25.6 22.2 82% 27 75.9 1011.2
04 01:52 Calm 16.09 Fair CLR 24.4 22.2 88% 25 75.92 1011.7
04 00:52 Calm 16.09 Fair CLR 25 22.8 31.1 25 88% 26 75.95 1012.1
03 23:52 Calm 16.09 Fair CLR 26.1 23.3 85% 28 75.95 1011.9
03 22:52 S 13 16.09 Fair CLR 26.7 23.9 85% 29 75.92 1011.7
03 21:52 S 9 16.09 Fair CLR 26.1 24.4 90% 28 75.92 1011.7
03 20:52 S 7 16.09 Fair CLR 26.1 24.4 90% 28 75.9 1011.2
03 19:52 S 7 16.09 Fair CLR 28.9 24.4 77% 34 75.84 1010.4
03 18:52 S 15 16.09 Fair CLR 31.1 25 35 31.1 70% 38 75.79 1010.0
03 17:52 S 11 16.09 Fair CLR 32.8 24.4 61% 39 75.84 1010.5
03 16:52 S 9 16.09 Fair CLR 33.9 23.9 56% 40 75.9 1011.1
03 15:52 S 9 16.09 A Few Clouds FEW110 34.4 23.3 52% 40 75.92 1011.5
03 14:52 S 11 16.09 Fair CLR 34.4 22.8 51% 40 75.95 1011.8
03 13:52 N 9 16.09 Fair CLR 34.4 21.7 48% 38 75.97 1012.0
03 12:52 Vrbl 9 16.09 Fair CLR 33.3 22.2 33.9 24.4 52% 38 76 1012.6
03 11:52 Calm 16.09 Fair CLR 32.8 22.8 56% 38 76.02 1013.0
03 10:52 W 9 16.09 Fair CLR 31.7 22.8 59% 36 76.05 1013.3
03 09:52 SW 11 16.09 Fair CLR 30 22.2 63% 33 76 1012.7
03 08:52 SW 9 16.09 Fair CLR 28.3 22.2 70% 31 76 1012.7
03 07:52 Calm 16.09 Partly Cloudy SCT120 26.1 21.7 77% 28 76.02 1012.8
03 06:52 Calm 16.09 Fair CLR 24.4 21.1 26.7 23.9 82% 25 76 1012.5
03 05:52 S 6 16.09 Fair CLR 25 21.1 79% 26 75.97 1012.2
03 04:52 Calm 16.09 Mostly Cloudy BKN110 25.6 21.1 76% 27 75.97 1012.1
03 03:52 Calm 16.09 Fair CLR 25.6 21.7 79% 27 75.95 1012.1
03 02:52 Calm 16.09 Fair CLR 25.6 22.2 82% 27 75.95 1011.9
03 01:52 S 11 16.09 Fair CLR 26.7 21.7 74% 29 75.95 1011.9
03 00:52 S 13 16.09 Fair CLR 26.7 22.2 31.1 26.7 76% 29 75.95 1012.0
02 23:52 S 7 16.09 Fair CLR 26.7 22.8 79% 29 75.95 1012.0
02 22:52 S 9 16.09 Fair CLR 27.2 23.3 79% 30 75.95 1011.9
02 21:52 S 11 16.09 Fair CLR 28.3 23.3 74% 32 75.92 1011.7
02 20:52 S 9 16.09 Fair CLR 28.3 23.9 77% 32 75.92 1011.5
02 19:52 S 9 16.09 Fair CLR 28.9 25 80% 34 75.9 1011.4
Date Time (cdt) Wind (kph) Vis. (km) Weather Sky Cond. Air Dwpt Max. Min. Relative Humidity Wind Chill (°C) Heat Index (°C) altimeter (cm) sea level (mb) 1 hr 3 hr 6 hr
6 hour
Temperature (ºC) Pressure Precipitation (cm)